Time;durP1;ratioP1;P1;durP2;ratioP2;P2;SDS_P1;SDS_P2;PMS_P1;PMS_P2;Temp;Humidity;BMP_temperature;BMP_pressure;BME280_temperature;BME280_humidity;BME280_pressure;Samples;Min_cycle;Max_cycle;Signal;HPM_P1;HPM_P2
2022/10/22 00:01:03;;;;;;;14.83;14.03;;;15.30;89.30;;;;;;5073328;28;20451;-76
2022/10/22 00:03:30;;;;;;;14.93;14.23;;;15.30;89.50;;;;;;5059972;28;20609;-77
2022/10/22 00:05:57;;;;;;;14.80;14.20;;;15.20;89.60;;;;;;5082723;28;20487;-77
2022/10/22 00:08:25;;;;;;;15.40;14.50;;;15.20;89.60;;;;;;5062076;28;20496;-79
2022/10/22 00:10:52;;;;;;;14.53;13.83;;;15.20;89.50;;;;;;5070099;28;20489;-77
2022/10/22 00:13:19;;;;;;;14.50;13.70;;;15.20;89.70;;;;;;5076973;28;20822;-78
2022/10/22 00:15:46;;;;;;;14.20;13.50;;;15.10;90.20;;;;;;5082423;28;20483;-79
2022/10/22 00:18:13;;;;;;;14.60;13.90;;;15.10;90.40;;;;;;5062403;28;20450;-77
2022/10/22 00:20:40;;;;;;;14.57;13.87;;;15.10;90.20;;;;;;5068357;28;20821;-78
2022/10/22 00:23:06;;;;;;;13.50;12.90;;;15.10;90.30;;;;;;5058664;28;20456;-77
2022/10/22 00:25:36;;;;;;;12.80;12.20;;;15.20;90.40;;;;;;5074896;28;20469;-76
2022/10/22 00:28:03;;;;;;;12.80;12.30;;;15.20;90.40;;;;;;5059018;28;20467;-76
2022/10/22 00:30:30;;;;;;;12.90;12.30;;;15.20;90.30;;;;;;5077690;28;20477;-76
2022/10/22 00:32:57;;;;;;;13.33;12.70;;;15.10;90.40;;;;;;5074923;28;20445;-75
2022/10/22 00:35:23;;;;;;;13.70;13.10;;;15.00;90.60;;;;;;5053954;28;20480;-76
2022/10/22 00:37:50;;;;;;;13.73;13.10;;;15.00;90.80;;;;;;5055465;28;20965;-76
2022/10/22 00:40:17;;;;;;;14.03;13.23;;;14.90;91.50;;;;;;5055961;28;20449;-75
2022/10/22 00:42:46;;;;;;;13.53;12.90;;;14.90;91.80;;;;;;5073286;28;20544;-76
2022/10/22 00:45:22;;;;;;;13.60;13.00;;;15.00;91.90;;;;;;5071500;28;20473;-76
2022/10/22 00:47:53;;;;;;;13.57;12.67;;;15.00;91.80;;;;;;5061678;28;21127;-76
2022/10/22 00:50:24;;;;;;;13.80;13.10;;;14.80;92.30;;;;;;5078103;28;20528;-76
2022/10/22 00:52:51;;;;;;;13.97;13.33;;;14.80;92.80;;;;;;5073639;28;20492;-75
2022/10/22 00:55:19;;;;;;;13.53;12.83;;;14.80;92.80;;;;;;5078794;28;20478;-76
2022/10/22 00:57:48;;;;;;;12.87;12.17;;;14.80;93.00;;;;;;5072215;28;20486;-76
2022/10/22 01:00:16;;;;;;;13.90;13.27;;;14.90;92.90;;;;;;5058067;28;21037;-76
2022/10/22 01:02:43;;;;;;;13.30;12.70;;;14.90;93.00;;;;;;5073376;28;20458;-76
2022/10/22 01:05:11;;;;;;;13.43;12.90;;;14.90;93.00;;;;;;5080258;28;20489;-76
2022/10/22 01:07:43;;;;;;;13.17;12.57;;;14.90;92.80;;;;;;5065633;28;20795;-75
2022/10/22 01:10:20;;;;;;;12.60;12.00;;;14.90;92.50;;;;;;5069296;28;20520;-76
2022/10/22 01:12:54;;;;;;;12.20;11.70;;;14.90;92.50;;;;;;5076890;28;20456;-76
2022/10/22 01:15:28;;;;;;;12.90;12.40;;;14.90;92.90;;;;;;5071075;28;20478;-75
2022/10/22 01:18:01;;;;;;;12.77;12.20;;;14.90;92.80;;;;;;5082547;28;20460;-76
2022/10/22 01:20:47;;;;;;;12.33;11.77;;;14.90;92.60;;;;;;5079907;28;20441;-75
2022/10/22 01:23:38;;;;;;;12.50;11.90;;;14.90;92.60;;;;;;5074923;28;20454;-76
2022/10/22 01:26:10;;;;;;;12.30;11.70;;;14.90;92.70;;;;;;5067555;28;20481;-76
2022/10/22 01:28:57;;;;;;;12.37;11.77;;;14.90;92.60;;;;;;5071683;28;20804;-75
2022/10/22 01:31:27;;;;;;;13.27;12.37;;;14.90;92.30;;;;;;5071993;28;20485;-75
2022/10/22 01:33:55;;;;;;;12.07;11.47;;;14.90;92.10;;;;;;5077598;28;20813;-76
2022/10/22 01:36:22;;;;;;;12.20;11.50;;;14.90;92.30;;;;;;5071140;28;20459;-76
2022/10/22 01:38:50;;;;;;;11.90;11.30;;;14.90;92.50;;;;;;5081425;28;20986;-77
2022/10/22 01:41:18;;;;;;;12.07;11.40;;;14.90;92.80;;;;;;5065943;28;20460;-77
2022/10/22 01:43:46;;;;;;;12.50;11.80;;;14.90;92.60;;;;;;5066956;28;20454;-77
2022/10/22 01:46:14;;;;;;;11.73;11.23;;;14.90;92.70;;;;;;5070029;28;20466;-77
2022/10/22 01:49:01;;;;;;;12.00;11.20;;;14.90;92.70;;;;;;5088139;28;20445;-78
2022/10/22 01:51:44;;;;;;;12.30;11.70;;;14.80;93.10;;;;;;5057518;28;20481;-77
2022/10/22 01:54:20;;;;;;;11.93;11.43;;;14.70;93.50;;;;;;5071770;28;20474;-77
2022/10/22 01:56:56;;;;;;;12.43;11.83;;;14.70;93.60;;;;;;5068776;28;20673;-78
2022/10/22 01:59:33;;;;;;;12.57;11.70;;;14.70;93.80;;;;;;5074152;28;20537;-77
2022/10/22 02:02:05;;;;;;;11.60;11.10;;;14.70;93.90;;;;;;5079881;28;20508;-77
2022/10/22 02:04:41;;;;;;;12.00;11.10;;;14.60;94.10;;;;;;5079760;28;20477;-77
2022/10/22 02:07:12;;;;;;;11.90;11.30;;;14.70;94.20;;;;;;5067347;28;20448;-78
2022/10/22 02:09:40;;;;;;;11.90;11.40;;;14.70;94.10;;;;;;5089976;28;20584;-77
2022/10/22 02:12:09;;;;;;;11.43;10.87;;;14.70;94.20;;;;;;5083614;28;20504;-77
2022/10/22 02:14:41;;;;;;;11.87;11.37;;;14.70;94.20;;;;;;5083916;28;20475;-77
2022/10/22 02:17:11;;;;;;;11.70;11.20;;;14.60;94.20;;;;;;5062909;28;21123;-77
2022/10/22 02:19:44;;;;;;;12.20;11.40;;;14.60;94.30;;;;;;5067965;28;20563;-77
2022/10/22 02:22:11;;;;;;;11.30;10.90;;;14.70;93.80;;;;;;5066925;28;20449;-77
2022/10/22 02:24:38;;;;;;;11.80;11.10;;;14.70;93.50;;;;;;5085576;28;20560;-77
2022/10/22 02:27:11;;;;;;;11.30;10.70;;;14.70;93.30;;;;;;5061393;28;20474;-77
2022/10/22 02:29:44;;;;;;;11.40;10.90;;;14.70;93.10;;;;;;5066917;28;20462;-77
2022/10/22 02:32:16;;;;;;;12.20;11.40;;;14.70;93.20;;;;;;5072574;28;20480;-77
2022/10/22 02:34:43;;;;;;;12.40;11.70;;;14.60;93.20;;;;;;5069444;28;20478;-77
2022/10/22 02:37:10;;;;;;;13.47;12.07;;;14.70;93.20;;;;;;5068414;28;20470;-77
2022/10/22 02:39:39;;;;;;;11.80;11.30;;;14.70;93.10;;;;;;5070978;28;20561;-78
2022/10/22 02:42:06;;;;;;;12.43;11.73;;;14.80;92.80;;;;;;5068067;28;20452;-79
2022/10/22 02:44:33;;;;;;;13.47;12.90;;;14.90;92.50;;;;;;5066841;28;20475;-77
2022/10/22 02:47:01;;;;;;;21.57;20.67;;;14.80;92.50;;;;;;5064435;28;20458;-77
2022/10/22 02:49:28;;;;;;;12.00;11.30;;;14.80;92.70;;;;;;5062589;28;20765;-79
2022/10/22 02:51:55;;;;;;;11.70;11.00;;;14.70;92.80;;;;;;5077883;28;20844;-77
2022/10/22 02:54:22;;;;;;;13.17;12.50;;;14.80;92.90;;;;;;5064542;28;20478;-76
2022/10/22 02:56:49;;;;;;;11.40;10.90;;;14.80;92.80;;;;;;5068626;28;20484;-77
2022/10/22 02:59:16;;;;;;;11.50;11.00;;;14.80;92.30;;;;;;5067346;28;20451;-77
2022/10/22 03:01:42;;;;;;;21.47;20.57;;;14.80;92.60;;;;;;5079032;28;20835;-78
2022/10/22 03:04:11;;;;;;;11.50;10.90;;;14.80;92.50;;;;;;5069290;28;20500;-77
2022/10/22 03:06:37;;;;;;;14.73;14.03;;;14.80;92.40;;;;;;5058024;28;20557;-75
2022/10/22 03:09:04;;;;;;;11.63;10.93;;;14.70;92.50;;;;;;5061847;28;20529;-76
2022/10/22 03:11:31;;;;;;;11.80;11.10;;;14.80;92.70;;;;;;5056673;28;20998;-75
2022/10/22 03:13:58;;;;;;;11.80;11.30;;;14.80;92.60;;;;;;5055633;28;20455;-76
2022/10/22 03:16:25;;;;;;;12.20;11.40;;;14.80;92.00;;;;;;5070988;28;20759;-76
2022/10/22 03:18:52;;;;;;;12.00;11.40;;;14.80;91.80;;;;;;5080005;28;20946;-76
2022/10/22 03:21:28;;;;;;;12.00;11.50;;;14.80;91.60;;;;;;5057315;28;20457;-76
2022/10/22 03:23:55;;;;;;;12.10;11.60;;;14.80;91.60;;;;;;5054474;28;20458;-76
2022/10/22 03:26:22;;;;;;;12.00;11.50;;;14.90;91.60;;;;;;5073686;28;20450;-76
2022/10/22 03:28:49;;;;;;;12.10;11.50;;;14.90;91.30;;;;;;5065921;28;20465;-76
2022/10/22 03:31:16;;;;;;;12.53;11.93;;;14.90;91.60;;;;;;5070874;28;20473;-76
2022/10/22 03:33:43;;;;;;;12.50;12.00;;;14.80;92.00;;;;;;5061855;28;20462;-75
2022/10/22 03:36:10;;;;;;;12.80;12.20;;;14.70;91.80;;;;;;5079841;28;20477;-76
2022/10/22 03:38:39;;;;;;;13.37;12.40;;;14.70;92.30;;;;;;5075228;28;20514;-76
2022/10/22 03:41:07;;;;;;;12.50;11.60;;;14.80;91.90;;;;;;5061108;28;20465;-76
2022/10/22 03:43:35;;;;;;;21.60;20.70;;;14.80;92.10;;;;;;5078003;28;20461;-76
2022/10/22 03:46:02;;;;;;;13.00;12.50;;;14.80;92.10;;;;;;5066294;28;20565;-76
2022/10/22 03:48:29;;;;;;;14.10;13.20;;;14.70;92.40;;;;;;5086536;28;20453;-76
2022/10/22 03:50:56;;;;;;;14.97;14.37;;;14.70;92.40;;;;;;5068819;28;20753;-76
2022/10/22 03:53:23;;;;;;;12.30;11.80;;;14.70;92.50;;;;;;5071011;28;20467;-76
2022/10/22 03:55:51;;;;;;;12.40;11.67;;;14.70;92.50;;;;;;5085565;28;20508;-76
2022/10/22 03:58:18;;;;;;;13.07;12.23;;;14.70;92.70;;;;;;5068268;28;20464;-76
2022/10/22 04:00:45;;;;;;;12.60;12.00;;;14.70;92.80;;;;;;5065923;28;20458;-77
2022/10/22 04:03:12;;;;;;;21.57;20.63;;;14.70;92.50;;;;;;5070176;28;20472;-77
2022/10/22 04:05:38;;;;;;;14.70;14.10;;;14.70;92.50;;;;;;5079878;28;20721;-79
2022/10/22 04:08:05;;;;;;;11.67;11.17;;;14.70;92.70;;;;;;5059991;28;20453;-77
2022/10/22 04:10:32;;;;;;;24.03;22.93;;;14.60;92.90;;;;;;5070244;28;20459;-77
2022/10/22 04:13:01;;;;;;;15.63;14.93;;;14.60;93.00;;;;;;5068236;28;20477;-77
2022/10/22 04:15:27;;;;;;;13.03;12.43;;;14.60;93.00;;;;;;5079437;28;20692;-77
2022/10/22 04:17:55;;;;;;;12.80;12.20;;;14.50;92.90;;;;;;5079410;28;20453;-77
2022/10/22 04:20:22;;;;;;;12.97;12.40;;;14.60;92.80;;;;;;5082152;28;20488;-77
2022/10/22 04:22:48;;;;;;;13.07;12.47;;;14.60;93.00;;;;;;5052240;28;20455;-76
2022/10/22 04:25:16;;;;;;;12.83;12.20;;;14.50;93.40;;;;;;5066244;28;20507;-77
2022/10/22 04:27:42;;;;;;;11.50;11.00;;;14.50;93.00;;;;;;5078345;28;20448;-77
2022/10/22 04:30:12;;;;;;;12.50;11.80;;;14.60;92.70;;;;;;5053620;28;20469;-77
2022/10/22 04:32:39;;;;;;;23.40;22.20;;;14.50;92.80;;;;;;5061536;28;20481;-77
2022/10/22 04:35:07;;;;;;;13.43;12.70;;;14.60;92.50;;;;;;5074881;28;20479;-77
2022/10/22 04:37:34;;;;;;;28.83;27.63;;;14.60;92.60;;;;;;5067647;28;20963;-78
2022/10/22 04:40:01;;;;;;;12.30;11.80;;;14.60;92.50;;;;;;5051123;28;20458;-77
2022/10/22 04:42:27;;;;;;;18.33;17.50;;;14.60;92.30;;;;;;5066222;28;20445;-78
2022/10/22 04:44:54;;;;;;;12.43;11.63;;;14.60;92.30;;;;;;5085247;28;20567;-77
2022/10/22 04:47:22;;;;;;;12.53;11.93;;;14.60;92.30;;;;;;5072562;28;20552;-77
2022/10/22 04:49:49;;;;;;;11.27;10.77;;;14.50;92.30;;;;;;5073135;28;20460;-77
2022/10/22 04:52:16;;;;;;;10.90;10.50;;;14.50;92.30;;;;;;5072809;28;20476;-77
2022/10/22 04:54:43;;;;;;;25.73;24.20;;;14.60;92.10;;;;;;5080897;28;20568;-77
2022/10/22 04:57:10;;;;;;;16.53;15.73;;;14.50;92.20;;;;;;5076275;28;20519;-78
2022/10/22 04:59:37;;;;;;;21.03;20.10;;;14.50;92.30;;;;;;5072418;28;20454;-77
2022/10/22 05:02:04;;;;;;;15.27;14.63;;;14.50;92.60;;;;;;5056793;28;20449;-77
2022/10/22 05:04:32;;;;;;;11.67;10.93;;;14.40;92.60;;;;;;5076477;28;20484;-77
2022/10/22 05:06:59;;;;;;;11.00;10.60;;;14.50;92.40;;;;;;5056761;28;20462;-78
2022/10/22 05:09:26;;;;;;;11.57;11.07;;;14.50;92.10;;;;;;5063722;28;20465;-79
2022/10/22 05:11:53;;;;;;;13.10;12.30;;;14.50;92.00;;;;;;5059848;28;21015;-77
2022/10/22 05:14:23;;;;;;;17.90;17.00;;;14.50;92.00;;;;;;5067639;28;20561;-76
2022/10/22 05:16:51;;;;;;;18.70;17.90;;;14.50;92.00;;;;;;5066616;28;20466;-76
2022/10/22 05:19:22;;;;;;;11.20;10.70;;;14.50;92.00;;;;;;5064624;28;20825;-76
2022/10/22 05:21:51;;;;;;;11.43;10.73;;;14.50;92.00;;;;;;5060732;28;20465;-76
2022/10/22 05:24:18;;;;;;;13.57;12.97;;;14.50;91.80;;;;;;5066532;28;20995;-75
2022/10/22 05:26:44;;;;;;;12.67;12.07;;;14.50;91.60;;;;;;5053775;28;21198;-76
2022/10/22 05:29:11;;;;;;;18.13;17.37;;;14.50;91.70;;;;;;5057278;28;20458;-75
2022/10/22 05:31:38;;;;;;;12.33;11.73;;;14.50;91.60;;;;;;5061029;28;20458;-75
2022/10/22 05:34:05;;;;;;;17.90;17.03;;;14.60;91.20;;;;;;5069964;28;20561;-76
2022/10/22 05:36:32;;;;;;;10.60;10.10;;;14.60;90.90;;;;;;5056483;28;20970;-76
2022/10/22 05:39:01;;;;;;;11.20;10.70;;;14.60;91.20;;;;;;5051097;28;20461;-76
2022/10/22 05:41:28;;;;;;;16.27;15.50;;;14.60;91.20;;;;;;5066378;28;20545;-76
2022/10/22 05:43:56;;;;;;;11.50;10.90;;;14.50;91.00;;;;;;5075978;28;20461;-76
2022/10/22 05:46:25;;;;;;;11.30;10.80;;;14.60;91.20;;;;;;5066544;28;20483;-77
2022/10/22 05:48:53;;;;;;;22.67;20.90;;;14.60;91.20;;;;;;5082094;28;20537;-77
2022/10/22 05:51:21;;;;;;;12.90;12.20;;;14.50;91.30;;;;;;5062184;28;20465;-78
2022/10/22 05:53:52;;;;;;;11.60;11.10;;;14.50;91.40;;;;;;5086846;28;20559;-77
2022/10/22 05:56:21;;;;;;;12.50;11.90;;;14.50;91.30;;;;;;5083931;28;20457;-76
2022/10/22 05:58:48;;;;;;;11.97;11.47;;;14.50;91.20;;;;;;5078013;28;20476;-78
2022/10/22 06:01:16;;;;;;;14.53;13.60;;;14.50;91.20;;;;;;5076411;28;20460;-79
2022/10/22 06:03:44;;;;;;;13.63;13.03;;;14.50;91.00;;;;;;5086225;28;20523;-78
2022/10/22 06:06:19;;;;;;;13.43;12.53;;;14.50;91.00;;;;;;5090182;28;20460;-76
2022/10/22 06:08:47;;;;;;;16.63;15.93;;;14.50;90.90;;;;;;5078538;28;20551;-77
2022/10/22 06:11:14;;;;;;;12.37;11.67;;;14.50;90.90;;;;;;5054204;28;20463;-78
2022/10/22 06:13:42;;;;;;;17.63;16.80;;;14.60;90.70;;;;;;5061749;28;21271;-78
2022/10/22 06:16:09;;;;;;;13.20;12.60;;;14.60;90.80;;;;;;5055418;28;20567;-76
2022/10/22 06:18:36;;;;;;;15.97;15.17;;;14.60;90.50;;;;;;5065320;28;20983;-77
2022/10/22 06:21:07;;;;;;;13.00;12.40;;;14.70;90.90;;;;;;5064813;28;21034;-75
2022/10/22 06:23:34;;;;;;;17.83;16.73;;;14.70;90.40;;;;;;5069279;28;20553;-77
2022/10/22 06:26:01;;;;;;;14.87;14.07;;;14.80;90.30;;;;;;5068171;28;20983;-74
2022/10/22 06:28:28;;;;;;;15.87;15.07;;;14.80;89.90;;;;;;5081999;28;20453;-74
2022/10/22 06:30:57;;;;;;;15.15;14.35;;;14.80;89.80;;;;;;5064620;28;20463;-78
2022/10/22 06:33:24;;;;;;;14.63;14.03;;;14.90;89.60;;;;;;5055231;28;20246;-77
2022/10/22 06:35:51;;;;;;;15.23;14.53;;;14.90;89.10;;;;;;5068292;28;20870;-82
2022/10/22 06:38:18;;;;;;;14.57;13.97;;;15.00;88.60;;;;;;5080424;28;20450;-77
2022/10/22 06:40:45;;;;;;;15.70;14.90;;;15.00;88.80;;;;;;5051231;28;20469;-78
2022/10/22 06:43:12;;;;;;;14.57;13.97;;;15.10;88.50;;;;;;5068120;28;20833;-78
2022/10/22 06:45:39;;;;;;;37.77;36.37;;;15.20;87.90;;;;;;5067066;28;20829;-78
2022/10/22 06:48:07;;;;;;;14.90;14.10;;;15.30;87.70;;;;;;5066240;28;20461;-79
2022/10/22 06:50:35;;;;;;;15.57;14.63;;;15.40;87.70;;;;;;5060280;28;20455;-79
2022/10/22 06:53:02;;;;;;;16.23;15.27;;;15.40;87.50;;;;;;5070922;28;20478;-78
2022/10/22 06:55:29;;;;;;;17.00;16.20;;;15.40;87.40;;;;;;5083174;28;21048;-83
2022/10/22 06:57:56;;;;;;;24.90;23.80;;;15.40;87.70;;;;;;5083240;28;20490;-80
2022/10/22 07:00:23;;;;;;;18.27;17.40;;;15.40;87.60;;;;;;5070583;28;20548;-78
2022/10/22 07:02:54;;;;;;;15.50;14.70;;;15.40;87.90;;;;;;5060635;28;20886;-76
2022/10/22 07:05:22;;;;;;;16.47;15.77;;;15.60;87.60;;;;;;5068087;28;20494;-77
2022/10/22 07:07:49;;;;;;;15.73;14.93;;;15.60;87.30;;;;;;5069984;28;20466;-77
2022/10/22 07:10:16;;;;;;;21.07;19.97;;;15.60;87.10;;;;;;5056482;28;20456;-76
2022/10/22 07:12:43;;;;;;;16.40;15.60;;;15.60;87.20;;;;;;5063849;28;20556;-75
2022/10/22 07:15:10;;;;;;;27.00;25.70;;;15.70;87.40;;;;;;5066471;28;20503;-75
2022/10/22 07:17:37;;;;;;;17.60;16.70;;;15.70;87.30;;;;;;5055843;28;20466;-74
2022/10/22 07:20:05;;;;;;;21.73;20.57;;;15.80;86.70;;;;;;5061214;28;20447;-74
2022/10/22 07:22:33;;;;;;;17.60;16.60;;;15.80;86.60;;;;;;5079084;28;20454;-75
2022/10/22 07:25:00;;;;;;;18.50;17.50;;;15.90;86.50;;;;;;5056494;28;20482;-78
2022/10/22 07:27:27;;;;;;;17.97;17.17;;;15.90;86.50;;;;;;5057172;28;20469;-79
2022/10/22 07:29:54;;;;;;;14.87;14.20;;;16.00;86.70;;;;;;5058495;28;20987;-81
2022/10/22 07:32:21;;;;;;;19.37;18.23;;;16.10;86.40;;;;;;5079888;28;20473;-79
2022/10/22 07:34:48;;;;;;;23.17;21.97;;;16.10;86.30;;;;;;5059006;28;20470;-79
2022/10/22 07:37:15;;;;;;;17.10;16.30;;;16.10;86.20;;;;;;5056852;28;20463;-76
2022/10/22 07:39:45;;;;;;;32.10;30.73;;;16.10;86.30;;;;;;5069351;28;20464;-76
2022/10/22 07:42:15;;;;;;;31.37;30.00;;;16.20;86.30;;;;;;5071980;28;20453;-77
2022/10/22 07:44:42;;;;;;;21.03;19.73;;;16.20;86.10;;;;;;5050828;28;20497;-78
2022/10/22 07:47:09;;;;;;;23.23;21.83;;;16.30;85.90;;;;;;5051307;28;20561;-77
2022/10/22 07:49:36;;;;;;;18.50;17.70;;;16.40;85.70;;;;;;5072403;28;20462;-77
2022/10/22 07:52:03;;;;;;;24.10;22.80;;;16.30;85.70;;;;;;5069989;28;20457;-77
2022/10/22 07:54:30;;;;;;;17.70;16.90;;;16.40;85.70;;;;;;5067176;28;20478;-77
2022/10/22 07:57:01;;;;;;;19.20;18.20;;;16.40;85.80;;;;;;5055694;28;20972;-76
2022/10/22 07:59:28;;;;;;;19.63;18.67;;;16.50;85.60;;;;;;5063011;28;20569;-76
2022/10/22 08:01:55;;;;;;;33.30;31.63;;;16.60;85.40;;;;;;5063559;28;20904;-76
2022/10/22 08:04:22;;;;;;;16.17;15.43;;;16.70;85.10;;;;;;5061056;28;20569;-75
2022/10/22 08:06:49;;;;;;;25.77;24.73;;;16.80;85.00;;;;;;5053626;28;20461;-75
2022/10/22 08:09:16;;;;;;;18.77;17.80;;;16.80;84.70;;;;;;5059590;28;20500;-75
2022/10/22 08:11:43;;;;;;;19.20;18.10;;;16.80;84.80;;;;;;5069271;28;20560;-76
2022/10/22 08:14:11;;;;;;;17.90;17.10;;;16.90;85.00;;;;;;5061684;28;20584;-75
2022/10/22 08:16:38;;;;;;;28.20;26.77;;;16.90;84.70;;;;;;5068360;28;20472;-75
2022/10/22 08:19:05;;;;;;;22.40;21.40;;;17.00;84.80;;;;;;5083036;28;20461;-74
2022/10/22 08:21:32;;;;;;;16.40;15.60;;;16.90;84.70;;;;;;5055819;28;20458;-75
2022/10/22 08:23:59;;;;;;;26.40;25.20;;;17.00;84.70;;;;;;5064909;28;20449;-74
2022/10/22 08:26:26;;;;;;;17.17;16.07;;;16.90;85.00;;;;;;5061973;28;21012;-75
2022/10/22 08:28:52;;;;;;;17.20;16.40;;;16.90;85.00;;;;;;5048017;28;20940;-75
2022/10/22 08:31:21;;;;;;;16.97;16.17;;;16.80;85.20;;;;;;5057151;28;20462;-75
2022/10/22 08:33:48;;;;;;;17.93;16.50;;;16.80;85.60;;;;;;5065133;28;20481;-76
2022/10/22 08:36:15;;;;;;;23.33;22.27;;;16.70;86.10;;;;;;5067995;28;20458;-75
2022/10/22 08:38:41;;;;;;;24.10;22.13;;;16.70;85.90;;;;;;5068268;28;20466;-76
2022/10/22 08:41:12;;;;;;;16.77;15.97;;;16.80;85.60;;;;;;5065571;28;20458;-75
2022/10/22 08:44:12;;;;;;;27.70;25.40;;;16.80;85.40;;;;;;5067820;28;20907;-76
2022/10/22 08:46:54;;;;;;;26.13;24.07;;;16.80;85.70;;;;;;5039112;28;20469;-76
2022/10/22 08:49:24;;;;;;;18.13;17.33;;;16.90;85.40;;;;;;5050691;28;20542;-75
2022/10/22 08:51:51;;;;;;;21.57;20.43;;;17.00;85.20;;;;;;5062777;28;20533;-74
2022/10/22 08:54:33;;;;;;;16.40;15.60;;;17.00;85.20;;;;;;5067680;28;20486;-74
2022/10/22 08:57:15;;;;;;;20.47;19.37;;;17.00;85.30;;;;;;5068214;28;20454;-74
2022/10/22 08:59:46;;;;;;;17.00;16.20;;;17.00;85.10;;;;;;5054044;28;20974;-74
2022/10/22 09:02:28;;;;;;;23.53;22.07;;;17.20;84.90;;;;;;5048710;28;20451;-74
2022/10/22 09:05:02;;;;;;;17.40;16.70;;;17.30;84.70;;;;;;5062173;28;20966;-74
2022/10/22 09:07:29;;;;;;;22.80;21.60;;;17.40;84.20;;;;;;5048785;28;20894;-74
2022/10/22 09:09:59;;;;;;;21.70;20.60;;;17.50;83.90;;;;;;5054765;28;20457;-74
2022/10/22 09:12:28;;;;;;;20.63;19.70;;;17.60;83.60;;;;;;5051465;28;20868;-74
2022/10/22 09:14:55;;;;;;;22.50;21.40;;;17.70;83.50;;;;;;5051105;28;20481;-75
2022/10/22 09:17:34;;;;;;;18.17;17.17;;;17.70;83.10;;;;;;5051794;28;20952;-74
2022/10/22 09:20:09;;;;;;;21.23;20.03;;;17.90;82.60;;;;;;5051044;28;21021;-75
2022/10/22 09:22:42;;;;;;;18.10;17.30;;;18.00;82.30;;;;;;5051626;28;20458;-74
2022/10/22 09:25:18;;;;;;;19.73;18.83;;;18.20;82.20;;;;;;5051058;28;20601;-74
2022/10/22 09:27:46;;;;;;;21.53;20.43;;;18.20;81.90;;;;;;5051429;28;20454;-75
2022/10/22 09:30:17;;;;;;;25.97;24.77;;;18.40;81.40;;;;;;5059911;28;20835;-76
2022/10/22 09:32:45;;;;;;;20.60;19.70;;;18.50;80.60;;;;;;5072911;28;20453;-75
2022/10/22 09:35:13;;;;;;;19.63;18.73;;;18.70;79.70;;;;;;5063567;28;20483;-76
2022/10/22 09:37:49;;;;;;;20.77;19.57;;;18.70;79.80;;;;;;5071431;28;20458;-75
2022/10/22 09:40:16;;;;;;;23.60;22.50;;;18.80;79.30;;;;;;5054225;28;20512;-74
2022/10/22 09:42:44;;;;;;;21.60;20.47;;;18.80;79.00;;;;;;5050725;28;20824;-75
2022/10/22 09:45:18;;;;;;;20.20;19.20;;;18.90;78.60;;;;;;5054530;28;20478;-75
2022/10/22 09:47:46;;;;;;;26.63;25.37;;;19.00;78.80;;;;;;5061456;28;20469;-74
2022/10/22 09:50:25;;;;;;;21.07;20.07;;;19.00;78.60;;;;;;5050846;28;20463;-75
2022/10/22 09:53:01;;;;;;;24.50;23.23;;;19.20;78.30;;;;;;5051029;28;20508;-75
2022/10/22 09:55:28;;;;;;;35.30;33.60;;;19.30;77.70;;;;;;5052078;28;20831;-75
2022/10/22 09:57:58;;;;;;;26.03;24.73;;;19.30;77.80;;;;;;5050534;28;20451;-75
2022/10/22 10:00:25;;;;;;;25.40;24.20;;;19.30;77.40;;;;;;5054266;28;20462;-74
2022/10/22 10:02:57;;;;;;;29.73;28.03;;;19.30;77.60;;;;;;5057823;28;20447;-75
2022/10/22 10:05:28;;;;;;;23.50;22.30;;;19.30;77.50;;;;;;5061415;28;20938;-75
2022/10/22 10:07:55;;;;;;;28.43;26.93;;;19.40;77.30;;;;;;5070201;28;20537;-74
2022/10/22 10:10:33;;;;;;;22.83;21.73;;;19.40;76.90;;;;;;5068854;28;20499;-75
2022/10/22 10:13:10;;;;;;;24.97;23.67;;;19.50;76.40;;;;;;5057307;28;20453;-74
2022/10/22 10:15:44;;;;;;;25.23;23.93;;;19.60;75.30;;;;;;5070925;28;20480;-74
2022/10/22 10:18:22;;;;;;;27.13;25.83;;;19.70;74.40;;;;;;5063588;28;20466;-75
2022/10/22 10:20:56;;;;;;;27.00;25.77;;;19.70;74.30;;;;;;5049870;28;20876;-74
2022/10/22 10:23:31;;;;;;;27.20;25.73;;;19.70;74.20;;;;;;5050185;28;20987;-76
2022/10/22 10:26:04;;;;;;;25.30;24.10;;;19.70;74.00;;;;;;5050980;28;20472;-76
2022/10/22 10:28:52;;;;;;;26.80;25.60;;;19.70;73.20;;;;;;5049911;28;20542;-75
2022/10/22 10:31:33;;;;;;;28.00;26.70;;;19.60;73.70;;;;;;5050615;28;20816;-75
2022/10/22 10:34:14;;;;;;;28.30;26.80;;;19.60;74.30;;;;;;5050344;28;20487;-75
2022/10/22 10:36:49;;;;;;;27.00;25.70;;;19.60;74.40;;;;;;5056665;28;20450;-75
2022/10/22 10:39:24;;;;;;;26.43;25.13;;;19.70;74.20;;;;;;5066631;28;20464;-76
2022/10/22 10:42:01;;;;;;;26.53;25.13;;;19.90;73.10;;;;;;5071771;28;20510;-80
2022/10/22 10:45:02;;;;;;;28.40;27.00;;;20.00;73.10;;;;;;5076679;28;20480;-80
2022/10/22 10:48:05;;;;;;;40.73;38.43;;;20.10;74.00;;;;;;5073857;28;20457;-80
2022/10/22 10:50:41;;;;;;;58.07;55.87;;;20.20;72.10;;;;;;5073129;28;20459;-76
2022/10/22 10:53:20;;;;;;;28.13;26.80;;;20.30;72.10;;;;;;5069719;28;20458;-79
2022/10/22 10:55:58;;;;;;;24.00;22.80;;;20.40;71.50;;;;;;5077156;28;20501;-80
2022/10/22 10:58:38;;;;;;;26.50;25.13;;;20.50;71.20;;;;;;5061710;28;20455;-78
2022/10/22 11:01:23;;;;;;;25.57;23.87;;;20.60;71.60;;;;;;5059507;28;20540;-78
2022/10/22 11:04:09;;;;;;;25.70;24.40;;;20.50;70.90;;;;;;5057412;28;20458;-79
2022/10/22 11:06:39;;;;;;;31.93;30.40;;;20.60;70.70;;;;;;5069207;28;20456;-79
2022/10/22 11:09:14;;;;;;;29.57;27.97;;;20.70;68.30;;;;;;5065909;28;20464;-79
2022/10/22 11:11:47;;;;;;;27.13;25.70;;;20.60;68.30;;;;;;5074769;28;20934;-79
2022/10/22 11:14:20;;;;;;;26.13;24.60;;;20.50;69.30;;;;;;5076040;28;20501;-79
2022/10/22 11:16:53;;;;;;;30.13;28.53;;;20.60;69.50;;;;;;5054187;28;20455;-79
2022/10/22 11:19:25;;;;;;;39.13;37.23;;;20.80;68.70;;;;;;5066862;28;20455;-79
2022/10/22 11:21:59;;;;;;;30.17;28.73;;;20.90;68.80;;;;;;5066448;28;20462;-79
2022/10/22 11:24:33;;;;;;;28.47;26.93;;;21.00;67.60;;;;;;5059441;28;20867;-79
2022/10/22 11:27:04;;;;;;;29.17;27.87;;;21.00;66.90;;;;;;5078285;28;20514;-79
2022/10/22 11:29:37;;;;;;;34.00;32.20;;;21.10;66.70;;;;;;5067413;28;20469;-80
2022/10/22 11:32:06;;;;;;;30.73;29.20;;;21.20;66.40;;;;;;5071894;28;20559;-80
2022/10/22 11:34:39;;;;;;;29.60;28.20;;;21.30;65.60;;;;;;5076781;28;20544;-81
2022/10/22 11:37:10;;;;;;;29.50;27.90;;;21.40;65.80;;;;;;5068081;28;20453;-80
2022/10/22 11:39:41;;;;;;;28.00;26.60;;;21.50;66.10;;;;;;5069751;28;20458;-80
2022/10/22 11:42:11;;;;;;;30.70;29.10;;;21.70;65.60;;;;;;5083252;28;20473;-80
2022/10/22 11:44:49;;;;;;;29.40;27.90;;;21.70;65.20;;;;;;5072836;28;20482;-80
2022/10/22 11:47:23;;;;;;;32.43;30.73;;;21.80;64.30;;;;;;5066514;28;20458;-80
2022/10/22 11:49:57;;;;;;;36.33;34.43;;;21.60;64.90;;;;;;5063868;28;21084;-80
2022/10/22 11:52:38;;;;;;;29.70;28.10;;;21.70;64.30;;;;;;5077742;28;20533;-77
2022/10/22 11:55:32;;;;;;;32.70;30.70;;;21.70;64.60;;;;;;5063816;28;20987;-78
2022/10/22 11:58:01;;;;;;;33.63;32.03;;;21.80;64.30;;;;;;5049685;28;20532;-76
2022/10/22 12:00:39;;;;;;;32.43;30.83;;;22.00;63.70;;;;;;5063732;28;20966;-78
2022/10/22 12:03:17;;;;;;;35.27;33.40;;;22.00;64.10;;;;;;5066899;28;20443;-77
2022/10/22 12:05:44;;;;;;;33.30;31.60;;;22.20;63.80;;;;;;5059920;28;20848;-77
2022/10/22 12:08:25;;;;;;;35.07;33.13;;;22.40;63.00;;;;;;5064774;28;20924;-79
2022/10/22 12:11:19;;;;;;;31.53;30.00;;;22.60;60.90;;;;;;5068393;28;20485;-77
2022/10/22 12:14:14;;;;;;;36.17;34.47;;;22.60;60.50;;;;;;5047538;28;20457;-77
2022/10/22 12:16:44;;;;;;;35.27;33.53;;;22.70;59.20;;;;;;5073494;28;20458;-77
2022/10/22 12:19:17;;;;;;;31.10;29.50;;;22.90;58.60;;;;;;5071921;28;20489;-77
2022/10/22 12:21:48;;;;;;;29.57;28.07;;;22.80;58.30;;;;;;5064311;28;20462;-77
2022/10/22 12:24:19;;;;;;;30.27;28.83;;;22.90;58.70;;;;;;5055753;28;20478;-77
2022/10/22 12:26:48;;;;;;;27.73;26.43;;;22.70;59.40;;;;;;5061388;28;20975;-77
2022/10/22 12:29:16;;;;;;;32.77;31.17;;;22.60;59.60;;;;;;5059336;28;20462;-78
2022/10/22 12:31:46;;;;;;;38.10;36.03;;;22.50;60.10;;;;;;5071297;28;20457;-78
2022/10/22 12:34:15;;;;;;;43.70;41.53;;;22.50;59.70;;;;;;5081681;28;20485;-79
2022/10/22 12:36:43;;;;;;;30.93;29.40;;;22.30;59.90;;;;;;5048487;28;20447;-78
2022/10/22 12:39:13;;;;;;;34.20;32.30;;;22.20;60.30;;;;;;5051299;28;20455;-79
2022/10/22 12:41:42;;;;;;;29.40;28.00;;;22.20;61.20;;;;;;5047023;28;20459;-78
2022/10/22 12:44:13;;;;;;;38.53;36.60;;;22.20;61.60;;;;;;5057741;28;20581;-79